Hauptseite
METAR-TAF:

METAR-TAF

Flughäfen :

Flugplatz Bíldudalur

Bíldudalur, Island

Breite: 65-38-30N, Länge: 23-32-45W, Höhe: 8 m

Beobachtung

Neuester Wetterbericht von vor 12 Stunden und 59 Minuten, um 11:00 UTC
Wind 10 kt aus Süd, Böen bis zu 20 kt
Temperatur 13°C
Luftfeuchtigkeit 58%
Luftdruck 1008 hPa
Sichtweite: 8000 m
Leicht bewölkt in der Höhe von 3000 ft

METAR: BIBD 251100Z 18010G20KT 8000 FEW030 13/05 Q1008

Zeit: 23:59 (23:59 UTC)

Prognose

Neuester Wetterbericht von vor 13 Stunden und 56 Minuten, um 10:03 UTC
Gültige Prognose vom 25 um 11 UTC bis 25 um 20 UTC
Wind 8 kt aus Südost
Sichtweite 10 km oder mehr
Leicht bewölkt in der Höhe von 3000 ft
Zeitweise
vom 25 um 11 UTC bis 25 um 20 UTC
Wind 18 kt aus Süd/Südost

TAF: BIBD 251003Z 2511/2520 14008KT 9999 FEW030 TEMPO 2511/2520 15018KT

Wetterbeobachtungen und Prognosen von mehr als 4000 Flughäfen (METAR und TAF Bericht).

Die verfügbaren Stationen werden durch gelbe und rote Markierungen auf der Karte dargestellt.

Führen Sie die Maus auf sie, um den Namen der Station zu sehen.

Darauf klicken, um die Beobachtung von Wetterbeobachtungen und Prognosen zu sehen.

Um die Karte zu ändern : klicken Sie auf den grünen Tasten mit einem schwarzen Kreuz Zum Vergrößern, auf den grünen Button mit einem Gedankenstrich zu verkleinern, oder auf die grünen Pfeile für benachbarte Karten.


METAR-TAF: